sensor_id;sensor_type;location;lat;lon;timestamp;pressure;altitude;pressure_sealevel;temperature;humidity
74466;BME280;62916;50.044;15.938;2023-05-07T00:01:12;99297.20;;;22.72;52.91
74466;BME280;62916;50.044;15.938;2023-05-07T00:03:43;99298.80;;;22.72;53.07
74466;BME280;62916;50.044;15.938;2023-05-07T00:06:15;99298.59;;;22.71;53.00
74466;BME280;62916;50.044;15.938;2023-05-07T00:08:46;99297.04;;;22.70;53.00
74466;BME280;62916;50.044;15.938;2023-05-07T00:11:18;99298.41;;;22.70;52.98
74466;BME280;62916;50.044;15.938;2023-05-07T00:13:49;99298.14;;;22.69;53.19
74466;BME280;62916;50.044;15.938;2023-05-07T00:16:20;99296.58;;;22.69;53.01
74466;BME280;62916;50.044;15.938;2023-05-07T00:18:51;99299.67;;;22.68;53.09
74466;BME280;62916;50.044;15.938;2023-05-07T00:21:22;99301.17;;;22.67;53.20
74466;BME280;62916;50.044;15.938;2023-05-07T00:23:56;99304.86;;;22.67;53.20
74466;BME280;62916;50.044;15.938;2023-05-07T00:26:26;99300.70;;;22.65;53.45
74466;BME280;62916;50.044;15.938;2023-05-07T00:28:58;99299.15;;;22.64;53.27
74466;BME280;62916;50.044;15.938;2023-05-07T00:31:28;99301.86;;;22.64;53.42
74466;BME280;62916;50.044;15.938;2023-05-07T00:34:00;99305.77;;;22.64;53.44
74466;BME280;62916;50.044;15.938;2023-05-07T00:36:31;99307.25;;;22.64;53.29
74466;BME280;62916;50.044;15.938;2023-05-07T00:39:02;99308.27;;;22.64;53.41
74466;BME280;62916;50.044;15.938;2023-05-07T00:41:33;99306.88;;;22.63;53.32
74466;BME280;62916;50.044;15.938;2023-05-07T00:44:05;99303.04;;;22.63;53.35
74466;BME280;62916;50.044;15.938;2023-05-07T00:46:36;99302.67;;;22.63;53.53
74466;BME280;62916;50.044;15.938;2023-05-07T00:49:07;99301.36;;;22.64;53.65
74466;BME280;62916;50.044;15.938;2023-05-07T00:51:38;99299.96;;;22.66;53.67
74466;BME280;62916;50.044;15.938;2023-05-07T00:54:09;99296.40;;;22.65;53.66
74466;BME280;62916;50.044;15.938;2023-05-07T00:56:40;99302.39;;;22.66;53.58
74466;BME280;62916;50.044;15.938;2023-05-07T00:59:11;99303.73;;;22.65;53.51
74466;BME280;62916;50.044;15.938;2023-05-07T01:01:42;99304.65;;;22.64;53.54
74466;BME280;62916;50.044;15.938;2023-05-07T01:04:14;99305.68;;;22.64;53.53
74466;BME280;62916;50.044;15.938;2023-05-07T01:06:45;99303.04;;;22.63;53.48
74466;BME280;62916;50.044;15.938;2023-05-07T01:09:17;99299.35;;;22.60;53.48
74466;BME280;62916;50.044;15.938;2023-05-07T01:11:50;99302.58;;;22.61;53.71
74466;BME280;62916;50.044;15.938;2023-05-07T01:14:22;99309.36;;;22.61;53.68
74466;BME280;62916;50.044;15.938;2023-05-07T01:16:53;99303.30;;;22.61;53.72
74466;BME280;62916;50.044;15.938;2023-05-07T01:19:24;99307.66;;;22.61;53.71
74466;BME280;62916;50.044;15.938;2023-05-07T01:22:02;99307.86;;;22.60;53.80
74466;BME280;62916;50.044;15.938;2023-05-07T01:24:34;99312.36;;;22.60;53.97
74466;BME280;62916;50.044;15.938;2023-05-07T01:27:07;99309.54;;;22.60;53.88
74466;BME280;62916;50.044;15.938;2023-05-07T01:29:38;99312.52;;;22.60;53.94
74466;BME280;62916;50.044;15.938;2023-05-07T01:32:09;99311.95;;;22.60;53.79
74466;BME280;62916;50.044;15.938;2023-05-07T01:34:40;99311.03;;;22.59;53.93
74466;BME280;62916;50.044;15.938;2023-05-07T01:37:12;99315.17;;;22.60;53.99
74466;BME280;62916;50.044;15.938;2023-05-07T01:39:43;99311.72;;;22.60;53.92
74466;BME280;62916;50.044;15.938;2023-05-07T01:42:16;99314.89;;;22.60;53.84
74466;BME280;62916;50.044;15.938;2023-05-07T01:44:47;99315.54;;;22.60;53.91
74466;BME280;62916;50.044;15.938;2023-05-07T01:47:19;99320.79;;;22.61;54.11
74466;BME280;62916;50.044;15.938;2023-05-07T01:49:51;99322.40;;;22.62;54.25
74466;BME280;62916;50.044;15.938;2023-05-07T01:52:22;99325.14;;;22.63;53.98
74466;BME280;62916;50.044;15.938;2023-05-07T01:54:54;99322.14;;;22.63;54.13
74466;BME280;62916;50.044;15.938;2023-05-07T01:57:25;99323.55;;;22.64;54.00
74466;BME280;62916;50.044;15.938;2023-05-07T01:59:56;99317.38;;;22.63;53.98
74466;BME280;62916;50.044;15.938;2023-05-07T02:02:27;99326.89;;;22.63;54.07
74466;BME280;62916;50.044;15.938;2023-05-07T02:04:59;99329.81;;;22.62;54.08
74466;BME280;62916;50.044;15.938;2023-05-07T02:07:30;99333.34;;;22.61;54.13
74466;BME280;62916;50.044;15.938;2023-05-07T02:10:01;99330.61;;;22.60;53.92
74466;BME280;62916;50.044;15.938;2023-05-07T02:12:32;99334.68;;;22.59;53.94
74466;BME280;62916;50.044;15.938;2023-05-07T02:15:04;99338.61;;;22.58;54.17
74466;BME280;62916;50.044;15.938;2023-05-07T02:17:38;99341.52;;;22.56;54.14
74466;BME280;62916;50.044;15.938;2023-05-07T02:20:11;99341.80;;;22.54;54.16
74466;BME280;62916;50.044;15.938;2023-05-07T02:22:43;99351.49;;;22.55;54.18
74466;BME280;62916;50.044;15.938;2023-05-07T02:25:14;99347.90;;;22.55;54.05
74466;BME280;62916;50.044;15.938;2023-05-07T02:27:44;99346.27;;;22.55;54.12
74466;BME280;62916;50.044;15.938;2023-05-07T02:30:16;99342.61;;;22.54;54.33
74466;BME280;62916;50.044;15.938;2023-05-07T02:32:47;99340.70;;;22.53;54.16
74466;BME280;62916;50.044;15.938;2023-05-07T02:35:18;99341.70;;;22.54;54.22
74466;BME280;62916;50.044;15.938;2023-05-07T02:37:49;99338.71;;;22.54;54.41
74466;BME280;62916;50.044;15.938;2023-05-07T02:40:20;99341.04;;;22.54;54.19
74466;BME280;62916;50.044;15.938;2023-05-07T02:42:51;99335.62;;;22.53;54.30
74466;BME280;62916;50.044;15.938;2023-05-07T02:45:22;99343.54;;;22.53;54.37
74466;BME280;62916;50.044;15.938;2023-05-07T02:47:53;99340.96;;;22.52;54.22
74466;BME280;62916;50.044;15.938;2023-05-07T02:50:24;99344.63;;;22.53;54.30
74466;BME280;62916;50.044;15.938;2023-05-07T02:52:56;99346.29;;;22.52;54.32
74466;BME280;62916;50.044;15.938;2023-05-07T02:55:27;99342.20;;;22.53;54.59
74466;BME280;62916;50.044;15.938;2023-05-07T02:57:58;99339.97;;;22.52;54.59
74466;BME280;62916;50.044;15.938;2023-05-07T03:00:29;99343.27;;;22.53;54.40
74466;BME280;62916;50.044;15.938;2023-05-07T03:02:59;99345.95;;;22.52;54.43
74466;BME280;62916;50.044;15.938;2023-05-07T03:05:30;99348.84;;;22.51;54.47
74466;BME280;62916;50.044;15.938;2023-05-07T03:08:01;99345.63;;;22.50;54.39
74466;BME280;62916;50.044;15.938;2023-05-07T03:10:33;99347.52;;;22.51;54.42
74466;BME280;62916;50.044;15.938;2023-05-07T03:13:04;99349.33;;;22.50;54.53
74466;BME280;62916;50.044;15.938;2023-05-07T03:15:35;99354.56;;;22.49;54.58
74466;BME280;62916;50.044;15.938;2023-05-07T03:18:06;99354.64;;;22.49;54.63
74466;BME280;62916;50.044;15.938;2023-05-07T03:20:37;99358.10;;;22.49;54.59
74466;BME280;62916;50.044;15.938;2023-05-07T03:23:08;99360.02;;;22.49;54.64
74466;BME280;62916;50.044;15.938;2023-05-07T03:25:39;99362.71;;;22.47;54.81
74466;BME280;62916;50.044;15.938;2023-05-07T03:28:09;99364.08;;;22.47;54.70
74466;BME280;62916;50.044;15.938;2023-05-07T03:30:41;99367.70;;;22.47;54.96
74466;BME280;62916;50.044;15.938;2023-05-07T03:33:11;99370.80;;;22.48;54.73
74466;BME280;62916;50.044;15.938;2023-05-07T03:35:42;99374.19;;;22.48;54.92
74466;BME280;62916;50.044;15.938;2023-05-07T03:38:13;99376.05;;;22.47;54.80
74466;BME280;62916;50.044;15.938;2023-05-07T03:40:44;99376.64;;;22.47;54.93
74466;BME280;62916;50.044;15.938;2023-05-07T03:43:15;99374.67;;;22.46;54.91
74466;BME280;62916;50.044;15.938;2023-05-07T03:45:46;99368.40;;;22.47;54.87
74466;BME280;62916;50.044;15.938;2023-05-07T03:48:17;99372.79;;;22.47;54.97
74466;BME280;62916;50.044;15.938;2023-05-07T03:50:48;99374.21;;;22.47;54.97
74466;BME280;62916;50.044;15.938;2023-05-07T03:53:19;99376.70;;;22.45;54.90
74466;BME280;62916;50.044;15.938;2023-05-07T03:55:50;99376.94;;;22.46;54.94
74466;BME280;62916;50.044;15.938;2023-05-07T03:58:20;99383.89;;;22.46;54.98
74466;BME280;62916;50.044;15.938;2023-05-07T04:00:51;99383.76;;;22.47;54.91
74466;BME280;62916;50.044;15.938;2023-05-07T04:03:23;99382.36;;;22.46;54.94
74466;BME280;62916;50.044;15.938;2023-05-07T04:05:54;99381.42;;;22.45;54.90
74466;BME280;62916;50.044;15.938;2023-05-07T04:08:25;99381.42;;;22.46;54.95
74466;BME280;62916;50.044;15.938;2023-05-07T04:10:59;99381.59;;;22.46;54.93
74466;BME280;62916;50.044;15.938;2023-05-07T04:13:30;99384.15;;;22.45;55.13
74466;BME280;62916;50.044;15.938;2023-05-07T04:16:02;99384.05;;;22.45;55.21
74466;BME280;62916;50.044;15.938;2023-05-07T04:18:33;99386.70;;;22.45;55.19
74466;BME280;62916;50.044;15.938;2023-05-07T04:21:05;99389.27;;;22.44;55.29
74466;BME280;62916;50.044;15.938;2023-05-07T04:23:36;99388.36;;;22.44;55.33
74466;BME280;62916;50.044;15.938;2023-05-07T04:26:06;99392.48;;;22.44;55.37
74466;BME280;62916;50.044;15.938;2023-05-07T04:28:37;99392.24;;;22.42;55.27
74466;BME280;62916;50.044;15.938;2023-05-07T04:31:09;99402.77;;;22.45;55.24
74466;BME280;62916;50.044;15.938;2023-05-07T04:33:39;99401.71;;;22.41;55.44
74466;BME280;62916;50.044;15.938;2023-05-07T04:36:10;99403.19;;;22.43;55.51
74466;BME280;62916;50.044;15.938;2023-05-07T04:38:41;99406.45;;;22.46;55.42
74466;BME280;62916;50.044;15.938;2023-05-07T04:41:14;99403.30;;;22.45;55.27
74466;BME280;62916;50.044;15.938;2023-05-07T04:43:46;99401.04;;;22.45;55.30
74466;BME280;62916;50.044;15.938;2023-05-07T04:46:17;99395.56;;;22.43;55.40
74466;BME280;62916;50.044;15.938;2023-05-07T04:48:48;99399.38;;;22.44;54.77
74466;BME280;62916;50.044;15.938;2023-05-07T04:51:18;99400.52;;;22.43;54.81
74466;BME280;62916;50.044;15.938;2023-05-07T04:53:50;99403.52;;;22.42;54.69
74466;BME280;62916;50.044;15.938;2023-05-07T04:56:21;99400.02;;;22.37;54.48
74466;BME280;62916;50.044;15.938;2023-05-07T04:58:51;99406.13;;;22.37;54.24
74466;BME280;62916;50.044;15.938;2023-05-07T05:01:22;99413.05;;;22.36;54.01
74466;BME280;62916;50.044;15.938;2023-05-07T05:03:53;99410.90;;;22.34;53.79
74466;BME280;62916;50.044;15.938;2023-05-07T05:06:25;99409.45;;;22.33;53.64
74466;BME280;62916;50.044;15.938;2023-05-07T05:08:56;99412.58;;;22.31;53.62
74466;BME280;62916;50.044;15.938;2023-05-07T05:11:26;99416.83;;;22.28;53.37
74466;BME280;62916;50.044;15.938;2023-05-07T05:13:58;99415.65;;;22.26;53.15
74466;BME280;62916;50.044;15.938;2023-05-07T05:16:30;99415.63;;;22.23;53.00
74466;BME280;62916;50.044;15.938;2023-05-07T05:19:01;99412.15;;;22.21;52.81
74466;BME280;62916;50.044;15.938;2023-05-07T05:21:32;99417.44;;;22.21;52.72
74466;BME280;62916;50.044;15.938;2023-05-07T05:24:04;99420.77;;;22.21;53.05
74466;BME280;62916;50.044;15.938;2023-05-07T05:26:35;99421.03;;;22.21;53.01
74466;BME280;62916;50.044;15.938;2023-05-07T05:29:06;99425.16;;;22.21;53.09
74466;BME280;62916;50.044;15.938;2023-05-07T05:31:37;99430.41;;;22.21;53.15
74466;BME280;62916;50.044;15.938;2023-05-07T05:34:08;99429.31;;;22.22;53.08
74466;BME280;62916;50.044;15.938;2023-05-07T05:36:39;99433.20;;;22.23;53.24
74466;BME280;62916;50.044;15.938;2023-05-07T05:39:10;99431.63;;;22.23;53.21
74466;BME280;62916;50.044;15.938;2023-05-07T05:41:40;99441.68;;;22.24;53.37
74466;BME280;62916;50.044;15.938;2023-05-07T05:44:11;99447.99;;;22.24;53.29
74466;BME280;62916;50.044;15.938;2023-05-07T05:46:42;99445.55;;;22.22;53.24
74466;BME280;62916;50.044;15.938;2023-05-07T05:49:13;99448.45;;;22.23;53.27
74466;BME280;62916;50.044;15.938;2023-05-07T05:51:44;99453.92;;;22.23;53.18
74466;BME280;62916;50.044;15.938;2023-05-07T05:54:15;99455.29;;;22.23;53.36
74466;BME280;62916;50.044;15.938;2023-05-07T05:56:46;99454.34;;;22.22;53.42
74466;BME280;62916;50.044;15.938;2023-05-07T05:59:17;99451.64;;;22.23;53.44
74466;BME280;62916;50.044;15.938;2023-05-07T06:01:48;99453.36;;;22.23;53.41
74466;BME280;62916;50.044;15.938;2023-05-07T06:04:19;99457.27;;;22.25;53.46
74466;BME280;62916;50.044;15.938;2023-05-07T06:06:49;99451.48;;;22.26;53.52
74466;BME280;62916;50.044;15.938;2023-05-07T06:09:20;99453.18;;;22.26;53.45
74466;BME280;62916;50.044;15.938;2023-05-07T06:11:51;99454.02;;;22.26;53.29
74466;BME280;62916;50.044;15.938;2023-05-07T06:14:22;99448.50;;;22.26;53.35
74466;BME280;62916;50.044;15.938;2023-05-07T06:16:52;99454.70;;;22.26;53.44
74466;BME280;62916;50.044;15.938;2023-05-07T06:19:24;99453.21;;;22.25;53.14
74466;BME280;62916;50.044;15.938;2023-05-07T06:21:56;99457.05;;;22.24;53.33
74466;BME280;62916;50.044;15.938;2023-05-07T06:24:27;99463.11;;;22.24;53.39
74466;BME280;62916;50.044;15.938;2023-05-07T06:26:58;99460.02;;;22.24;53.31
74466;BME280;62916;50.044;15.938;2023-05-07T06:29:28;99464.38;;;22.24;53.37
74466;BME280;62916;50.044;15.938;2023-05-07T06:32:07;99469.41;;;22.23;53.09
74466;BME280;62916;50.044;15.938;2023-05-07T06:34:39;99467.92;;;22.19;51.80
74466;BME280;62916;50.044;15.938;2023-05-07T06:37:10;99465.74;;;22.15;51.48
74466;BME280;62916;50.044;15.938;2023-05-07T06:39:41;99469.53;;;22.10;51.35
74466;BME280;62916;50.044;15.938;2023-05-07T06:42:12;99479.17;;;22.11;51.60
74466;BME280;62916;50.044;15.938;2023-05-07T06:44:43;99478.80;;;22.12;51.53
74466;BME280;62916;50.044;15.938;2023-05-07T06:47:13;99483.00;;;22.12;51.42
74466;BME280;62916;50.044;15.938;2023-05-07T06:49:45;99483.52;;;22.11;51.30
74466;BME280;62916;50.044;15.938;2023-05-07T06:52:16;99483.67;;;22.09;51.47
74466;BME280;62916;50.044;15.938;2023-05-07T06:54:46;99490.90;;;22.12;51.45
74466;BME280;62916;50.044;15.938;2023-05-07T06:57:17;99488.64;;;22.12;51.42
74466;BME280;62916;50.044;15.938;2023-05-07T06:59:48;99491.27;;;22.13;51.35
74466;BME280;62916;50.044;15.938;2023-05-07T07:02:19;99499.20;;;22.12;51.20
74466;BME280;62916;50.044;15.938;2023-05-07T07:04:50;99496.43;;;22.12;51.22
74466;BME280;62916;50.044;15.938;2023-05-07T07:07:21;99495.73;;;22.11;50.96
74466;BME280;62916;50.044;15.938;2023-05-07T07:09:52;99497.95;;;22.11;51.09
74466;BME280;62916;50.044;15.938;2023-05-07T07:12:23;99497.98;;;22.10;51.02
74466;BME280;62916;50.044;15.938;2023-05-07T07:14:55;99497.20;;;22.07;50.93
74466;BME280;62916;50.044;15.938;2023-05-07T07:17:26;99502.10;;;22.08;50.85
74466;BME280;62916;50.044;15.938;2023-05-07T07:19:57;99502.23;;;22.06;50.83
74466;BME280;62916;50.044;15.938;2023-05-07T07:22:28;99505.27;;;22.05;50.73
74466;BME280;62916;50.044;15.938;2023-05-07T07:24:59;99508.17;;;22.04;50.67
74466;BME280;62916;50.044;15.938;2023-05-07T07:27:30;99513.73;;;22.02;50.73
74466;BME280;62916;50.044;15.938;2023-05-07T07:30:01;99515.20;;;22.00;50.67
74466;BME280;62916;50.044;15.938;2023-05-07T07:32:32;99519.50;;;22.00;50.59
74466;BME280;62916;50.044;15.938;2023-05-07T07:35:03;99525.98;;;22.00;50.81
74466;BME280;62916;50.044;15.938;2023-05-07T07:37:34;99522.72;;;22.00;50.54
74466;BME280;62916;50.044;15.938;2023-05-07T07:40:07;99524.21;;;21.99;50.39
74466;BME280;62916;50.044;15.938;2023-05-07T07:42:39;99526.49;;;21.98;50.38
74466;BME280;62916;50.044;15.938;2023-05-07T07:45:10;99532.38;;;21.98;50.51
74466;BME280;62916;50.044;15.938;2023-05-07T07:47:42;99529.38;;;21.98;50.43
74466;BME280;62916;50.044;15.938;2023-05-07T07:50:13;99530.05;;;21.98;50.33
74466;BME280;62916;50.044;15.938;2023-05-07T07:53:01;99529.31;;;21.98;50.33
74466;BME280;62916;50.044;15.938;2023-05-07T07:55:32;99529.63;;;21.96;50.12
74466;BME280;62916;50.044;15.938;2023-05-07T07:58:03;99536.39;;;21.97;50.24
74466;BME280;62916;50.044;15.938;2023-05-07T08:00:34;99538.58;;;21.98;49.96
74466;BME280;62916;50.044;15.938;2023-05-07T08:03:05;99537.64;;;21.97;50.00
74466;BME280;62916;50.044;15.938;2023-05-07T08:05:37;99540.98;;;21.96;50.11
74466;BME280;62916;50.044;15.938;2023-05-07T08:08:08;99544.65;;;21.97;50.09
74466;BME280;62916;50.044;15.938;2023-05-07T08:10:39;99546.36;;;21.98;50.29
74466;BME280;62916;50.044;15.938;2023-05-07T08:13:11;99546.31;;;22.00;50.29
74466;BME280;62916;50.044;15.938;2023-05-07T08:15:42;99544.20;;;22.02;50.36
74466;BME280;62916;50.044;15.938;2023-05-07T08:18:13;99545.55;;;22.02;50.13
74466;BME280;62916;50.044;15.938;2023-05-07T08:20:44;99543.61;;;22.02;50.15
74466;BME280;62916;50.044;15.938;2023-05-07T08:23:15;99543.27;;;22.03;50.27
74466;BME280;62916;50.044;15.938;2023-05-07T08:25:47;99550.45;;;22.05;49.90
74466;BME280;62916;50.044;15.938;2023-05-07T08:28:18;99554.73;;;22.06;49.92
74466;BME280;62916;50.044;15.938;2023-05-07T08:30:51;99558.38;;;22.07;49.86
74466;BME280;62916;50.044;15.938;2023-05-07T08:33:22;99561.15;;;22.07;49.38
74466;BME280;62916;50.044;15.938;2023-05-07T08:35:52;99563.61;;;22.08;49.52
74466;BME280;62916;50.044;15.938;2023-05-07T08:38:23;99562.67;;;22.09;49.28
74466;BME280;62916;50.044;15.938;2023-05-07T08:40:57;99569.42;;;22.10;49.20
74466;BME280;62916;50.044;15.938;2023-05-07T08:43:28;99564.45;;;22.10;49.07
74466;BME280;62916;50.044;15.938;2023-05-07T08:46:02;99561.82;;;22.11;49.08
74466;BME280;62916;50.044;15.938;2023-05-07T08:48:39;99564.34;;;22.12;48.74
74466;BME280;62916;50.044;15.938;2023-05-07T08:51:11;99565.38;;;22.14;48.93
74466;BME280;62916;50.044;15.938;2023-05-07T08:53:43;99568.44;;;22.14;48.52
74466;BME280;62916;50.044;15.938;2023-05-07T08:56:14;99567.59;;;22.09;48.22
74466;BME280;62916;50.044;15.938;2023-05-07T08:58:46;99572.58;;;22.01;48.10
74466;BME280;62916;50.044;15.938;2023-05-07T09:01:17;99574.45;;;21.97;48.17
74466;BME280;62916;50.044;15.938;2023-05-07T09:03:49;99572.91;;;21.98;48.15
74466;BME280;62916;50.044;15.938;2023-05-07T09:06:20;99578.72;;;22.01;47.80
74466;BME280;62916;50.044;15.938;2023-05-07T09:08:52;99577.17;;;22.02;47.79
74466;BME280;62916;50.044;15.938;2023-05-07T09:11:24;99585.21;;;22.05;47.75
74466;BME280;62916;50.044;15.938;2023-05-07T09:13:56;99588.75;;;22.06;47.60
74466;BME280;62916;50.044;15.938;2023-05-07T09:16:32;99586.27;;;22.08;47.54
74466;BME280;62916;50.044;15.938;2023-05-07T09:19:03;99585.02;;;22.08;47.44
74466;BME280;62916;50.044;15.938;2023-05-07T09:21:34;99589.29;;;22.09;47.20
74466;BME280;62916;50.044;15.938;2023-05-07T09:24:07;99590.63;;;22.10;46.98
74466;BME280;62916;50.044;15.938;2023-05-07T09:26:38;99586.37;;;22.08;46.82
74466;BME280;62916;50.044;15.938;2023-05-07T09:29:09;99591.10;;;22.09;46.85
74466;BME280;62916;50.044;15.938;2023-05-07T09:31:41;99592.22;;;22.09;46.51
74466;BME280;62916;50.044;15.938;2023-05-07T09:34:12;99592.85;;;22.09;46.36
74466;BME280;62916;50.044;15.938;2023-05-07T09:36:44;99594.32;;;22.09;46.30
74466;BME280;62916;50.044;15.938;2023-05-07T09:39:16;99593.55;;;22.08;46.05
74466;BME280;62916;50.044;15.938;2023-05-07T09:41:48;99597.96;;;22.09;45.94
74466;BME280;62916;50.044;15.938;2023-05-07T09:44:21;99594.79;;;22.09;45.70
74466;BME280;62916;50.044;15.938;2023-05-07T09:46:54;99597.80;;;22.08;45.67
74466;BME280;62916;50.044;15.938;2023-05-07T09:49:24;99597.83;;;22.07;45.83
74466;BME280;62916;50.044;15.938;2023-05-07T09:52:01;99597.59;;;22.07;45.72
74466;BME280;62916;50.044;15.938;2023-05-07T09:54:35;99598.66;;;22.07;45.67
74466;BME280;62916;50.044;15.938;2023-05-07T09:57:09;99598.33;;;22.07;45.19
74466;BME280;62916;50.044;15.938;2023-05-07T09:59:43;99595.40;;;22.06;45.45
74466;BME280;62916;50.044;15.938;2023-05-07T10:02:16;99597.21;;;22.06;45.25
74466;BME280;62916;50.044;15.938;2023-05-07T10:04:49;99601.65;;;22.07;45.01
74466;BME280;62916;50.044;15.938;2023-05-07T10:07:22;99597.45;;;22.10;45.42
74466;BME280;62916;50.044;15.938;2023-05-07T10:09:54;99595.33;;;22.10;45.45
74466;BME280;62916;50.044;15.938;2023-05-07T10:12:25;99601.72;;;22.07;45.22
74466;BME280;62916;50.044;15.938;2023-05-07T10:14:57;99603.28;;;22.05;45.01
74466;BME280;62916;50.044;15.938;2023-05-07T10:17:28;99605.19;;;22.03;45.00
74466;BME280;62916;50.044;15.938;2023-05-07T10:20:00;99606.48;;;21.98;45.15
74466;BME280;62916;50.044;15.938;2023-05-07T10:22:37;99605.42;;;21.94;45.33
74466;BME280;62916;50.044;15.938;2023-05-07T10:25:16;99605.19;;;21.92;45.11
74466;BME280;62916;50.044;15.938;2023-05-07T10:27:49;99605.31;;;21.91;45.39
74466;BME280;62916;50.044;15.938;2023-05-07T10:30:30;99605.77;;;21.91;45.21
74466;BME280;62916;50.044;15.938;2023-05-07T10:33:10;99605.34;;;21.90;45.26
74466;BME280;62916;50.044;15.938;2023-05-07T10:35:44;99605.42;;;21.89;45.23
74466;BME280;62916;50.044;15.938;2023-05-07T10:38:15;99610.27;;;21.87;45.34
74466;BME280;62916;50.044;15.938;2023-05-07T10:40:47;99607.59;;;21.88;45.58
74466;BME280;62916;50.044;15.938;2023-05-07T10:43:18;99602.12;;;21.93;45.51
74466;BME280;62916;50.044;15.938;2023-05-07T10:46:16;99605.07;;;21.98;45.62
74466;BME280;62916;50.044;15.938;2023-05-07T10:49:13;99606.95;;;22.02;45.78
74466;BME280;62916;50.044;15.938;2023-05-07T10:51:43;99610.66;;;22.07;45.74
74466;BME280;62916;50.044;15.938;2023-05-07T10:54:23;99609.30;;;22.07;45.93
74466;BME280;62916;50.044;15.938;2023-05-07T10:56:57;99609.40;;;22.11;45.87
74466;BME280;62916;50.044;15.938;2023-05-07T10:59:48;99609.68;;;22.14;46.05
74466;BME280;62916;50.044;15.938;2023-05-07T11:02:19;99611.66;;;22.16;45.99
74466;BME280;62916;50.044;15.938;2023-05-07T11:05:22;99609.71;;;22.17;45.88
74466;BME280;62916;50.044;15.938;2023-05-07T11:07:57;99611.71;;;22.20;46.25
74466;BME280;62916;50.044;15.938;2023-05-07T11:10:49;99614.84;;;22.22;46.13
74466;BME280;62916;50.044;15.938;2023-05-07T11:13:42;99614.32;;;22.25;46.12
74466;BME280;62916;50.044;15.938;2023-05-07T11:16:21;99618.70;;;22.26;46.44
74466;BME280;62916;50.044;15.938;2023-05-07T11:18:54;99620.55;;;22.27;46.42
74466;BME280;62916;50.044;15.938;2023-05-07T11:21:36;99619.38;;;22.30;46.20
74466;BME280;62916;50.044;15.938;2023-05-07T11:24:09;99617.41;;;22.32;46.18
74466;BME280;62916;50.044;15.938;2023-05-07T11:26:48;99615.91;;;22.33;46.21
74466;BME280;62916;50.044;15.938;2023-05-07T11:29:20;99614.66;;;22.34;46.38
74466;BME280;62916;50.044;15.938;2023-05-07T11:31:53;99617.46;;;22.35;46.33
74466;BME280;62916;50.044;15.938;2023-05-07T11:34:25;99621.30;;;22.35;46.39
74466;BME280;62916;50.044;15.938;2023-05-07T11:36:57;99624.89;;;22.36;46.58
74466;BME280;62916;50.044;15.938;2023-05-07T11:39:30;99625.76;;;22.36;46.59
74466;BME280;62916;50.044;15.938;2023-05-07T11:42:05;99625.95;;;22.37;46.61
74466;BME280;62916;50.044;15.938;2023-05-07T11:44:48;99626.58;;;22.39;46.76
74466;BME280;62916;50.044;15.938;2023-05-07T11:47:22;99630.09;;;22.40;46.86
74466;BME280;62916;50.044;15.938;2023-05-07T11:49:55;99628.48;;;22.40;47.08
74466;BME280;62916;50.044;15.938;2023-05-07T11:52:27;99633.01;;;22.42;46.95
74466;BME280;62916;50.044;15.938;2023-05-07T11:54:59;99631.55;;;22.43;47.16
74466;BME280;62916;50.044;15.938;2023-05-07T11:57:32;99632.20;;;22.45;47.18
74466;BME280;62916;50.044;15.938;2023-05-07T12:00:04;99634.11;;;22.45;47.28
74466;BME280;62916;50.044;15.938;2023-05-07T12:02:35;99635.89;;;22.47;47.54
74466;BME280;62916;50.044;15.938;2023-05-07T12:05:08;99639.59;;;22.48;47.54
74466;BME280;62916;50.044;15.938;2023-05-07T12:07:40;99634.56;;;22.49;47.31
74466;BME280;62916;50.044;15.938;2023-05-07T12:10:14;99635.95;;;22.50;47.29
74466;BME280;62916;50.044;15.938;2023-05-07T12:12:50;99634.70;;;22.51;46.92
74466;BME280;62916;50.044;15.938;2023-05-07T12:15:27;99638.95;;;22.50;46.90
74466;BME280;62916;50.044;15.938;2023-05-07T12:17:58;99638.48;;;22.51;46.83
74466;BME280;62916;50.044;15.938;2023-05-07T12:20:37;99637.69;;;22.51;46.93
74466;BME280;62916;50.044;15.938;2023-05-07T12:23:08;99631.32;;;22.52;47.10
74466;BME280;62916;50.044;15.938;2023-05-07T12:25:41;99631.23;;;22.54;47.13
74466;BME280;62916;50.044;15.938;2023-05-07T12:28:17;99638.60;;;22.55;47.20
74466;BME280;62916;50.044;15.938;2023-05-07T12:30:50;99641.25;;;22.56;47.20
74466;BME280;62916;50.044;15.938;2023-05-07T12:33:25;99644.90;;;22.57;47.39
74466;BME280;62916;50.044;15.938;2023-05-07T12:35:58;99643.69;;;22.58;47.55
74466;BME280;62916;50.044;15.938;2023-05-07T12:38:35;99641.62;;;22.60;47.45
74466;BME280;62916;50.044;15.938;2023-05-07T12:41:07;99647.98;;;22.62;47.46
74466;BME280;62916;50.044;15.938;2023-05-07T12:43:39;99648.52;;;22.63;47.57
74466;BME280;62916;50.044;15.938;2023-05-07T12:46:14;99645.27;;;22.64;47.64
74466;BME280;62916;50.044;15.938;2023-05-07T12:48:46;99637.92;;;22.64;47.64
74466;BME280;62916;50.044;15.938;2023-05-07T12:51:17;99642.67;;;22.66;47.59
74466;BME280;62916;50.044;15.938;2023-05-07T12:53:48;99648.70;;;22.67;47.70
74466;BME280;62916;50.044;15.938;2023-05-07T12:56:19;99653.38;;;22.68;47.55
74466;BME280;62916;50.044;15.938;2023-05-07T12:58:50;99652.81;;;22.68;47.85
74466;BME280;62916;50.044;15.938;2023-05-07T13:01:21;99652.27;;;22.69;47.76
74466;BME280;62916;50.044;15.938;2023-05-07T13:03:53;99656.13;;;22.70;47.91
74466;BME280;62916;50.044;15.938;2023-05-07T13:06:24;99658.02;;;22.71;47.90
74466;BME280;62916;50.044;15.938;2023-05-07T13:08:55;99657.17;;;22.71;47.89
74466;BME280;62916;50.044;15.938;2023-05-07T13:11:26;99657.04;;;22.72;48.02
74466;BME280;62916;50.044;15.938;2023-05-07T13:13:57;99659.05;;;22.73;48.00
74466;BME280;62916;50.044;15.938;2023-05-07T13:16:28;99666.16;;;22.76;47.88